aviador You're here:

OERK Decoded Metar

RIYADH in SAUDI ARABIA
Report Time2018-07-23 11:00:00
UTC Time2018-07-23 11:17:37
Flight Rules vfr VFR
Wind190° at 07 kt
W.Decomp.*RWY 15: 5.5 kt HW 4.3 kt RCW
W.Rank190° ranks 29
Current wind is above 190° avg. (5.8)
Visibility9999 m
Phenomena:N/A
Clouds:N/A
Expected CloudBase > 15,600 ft AGL from Temp-Dew spread
CeilingNone
Temp41°C (ISA +30)
Dew Point02°C (9% RH)
Heat Index37.8°C
AAT36.8°C
QNH1003 hPa
Density Alt5,784 ft
Elevation2,008 ft
Report Wrong Elevation
Raw Report
METAR OERK 231100Z 19007KT CAVOK 41/02 Q1003 NOSIG=

Extra information for OERK:More info

Metar Taf Metar & Taf Last 4 Metars F.Rules Stats Wind Profile Meteogram Temp Stats Airport Information Weather charts Add Link Nearby VenuesMetar ALERT Operation Metar Decoded Social comments